CFG8HF EDDF-LGIR
Flight info
| Callsign | CFG8HF |
|---|---|
| Flight time | N/A |
| Altitude | 39000 |
| Route | CINDY8S CINDY Z74 LAMPU DCT NOMBO Y161 MAH DCT VAVOR DCT RADIZ DCT PINDO DCT KEA UL607 GIVIS T514 XAVIS |
| Aircraft | A20N/M-SDE2E3FGHIRWXY/LB1 |
Departure
| Time | N/A |
|---|---|
| Airport | Frankfurt Main Airport (EDDF) |
Arrival
| Time | 2026-05-04 13:25 |
|---|---|
| Airport | Heraklion International Nikos Kazantzakis Airport (LGIR) |
| Time | Latitude | Longitude | Altitude | Speed | Heading |
|---|---|---|---|---|---|
| 2026-05-04 12:59 | 36.97201 | 24.75554 | 33103 ft | 509 kts | 149° |
| 2026-05-04 12:59 | 36.94177 | 24.77893 | 32536 ft | 506 kts | 149° |
| 2026-05-04 13:00 | 36.91225 | 24.80176 | 31989 ft | 502 kts | 149° |
| 2026-05-04 13:00 | 36.88256 | 24.82471 | 31450 ft | 498 kts | 149° |
| 2026-05-04 13:00 | 36.85351 | 24.84722 | 30915 ft | 494 kts | 149° |
| 2026-05-04 13:00 | 36.82464 | 24.86957 | 30379 ft | 491 kts | 149° |
| 2026-05-04 13:01 | 36.79575 | 24.89190 | 29850 ft | 487 kts | 149° |
| 2026-05-04 13:01 | 36.76719 | 24.91392 | 29364 ft | 481 kts | 149° |
| 2026-05-04 13:01 | 36.73866 | 24.93588 | 28859 ft | 477 kts | 148° |
| 2026-05-04 13:01 | 36.71082 | 24.95731 | 28254 ft | 475 kts | 148° |
| 2026-05-04 13:02 | 36.68282 | 24.97884 | 27771 ft | 470 kts | 148° |
| 2026-05-04 13:02 | 36.65518 | 25.00003 | 27339 ft | 463 kts | 148° |
| 2026-05-04 13:02 | 36.62811 | 25.02077 | 26925 ft | 456 kts | 148° |
| 2026-05-04 13:02 | 36.60101 | 25.04153 | 26474 ft | 450 kts | 148° |
| 2026-05-04 13:03 | 36.57467 | 25.06168 | 26053 ft | 445 kts | 147° |
| 2026-05-04 13:03 | 36.54860 | 25.08159 | 25648 ft | 438 kts | 147° |
| 2026-05-04 13:03 | 36.52293 | 25.10121 | 25240 ft | 433 kts | 147° |
| 2026-05-04 13:03 | 36.49754 | 25.12062 | 24802 ft | 428 kts | 147° |
| 2026-05-04 13:04 | 36.47202 | 25.14010 | 24380 ft | 423 kts | 147° |
| 2026-05-04 13:04 | 36.44716 | 25.15907 | 23923 ft | 419 kts | 146° |
| 2026-05-04 13:04 | 36.42247 | 25.17788 | 23472 ft | 416 kts | 146° |
| 2026-05-04 13:04 | 36.39803 | 25.19650 | 23043 ft | 412 kts | 147° |
| 2026-05-04 13:05 | 36.37385 | 25.21493 | 22630 ft | 408 kts | 147° |
| 2026-05-04 13:05 | 36.34977 | 25.23324 | 22203 ft | 404 kts | 147° |
| 2026-05-04 13:05 | 36.32603 | 25.25129 | 21814 ft | 399 kts | 147° |
| 2026-05-04 13:05 | 36.30245 | 25.26922 | 21405 ft | 395 kts | 147° |
| 2026-05-04 13:06 | 36.27912 | 25.28692 | 20988 ft | 392 kts | 147° |
| 2026-05-04 13:06 | 36.25623 | 25.30427 | 20589 ft | 389 kts | 147° |
| 2026-05-04 13:06 | 36.23311 | 25.32180 | 20163 ft | 386 kts | 148° |
| 2026-05-04 13:06 | 36.21037 | 25.33900 | 19771 ft | 383 kts | 148° |
| 2026-05-04 13:07 | 36.18759 | 25.35622 | 19368 ft | 380 kts | 147° |
| 2026-05-04 13:07 | 36.16523 | 25.37311 | 18986 ft | 376 kts | 148° |
| 2026-05-04 13:07 | 36.14300 | 25.38986 | 18605 ft | 373 kts | 149° |
| 2026-05-04 13:07 | 36.12010 | 25.40468 | 18208 ft | 370 kts | 155° |
| 2026-05-04 13:08 | 36.09655 | 25.41619 | 17814 ft | 367 kts | 161° |
| 2026-05-04 13:08 | 36.07251 | 25.42602 | 17416 ft | 364 kts | 162° |
| 2026-05-04 13:08 | 36.04836 | 25.43556 | 17007 ft | 361 kts | 162° |
| 2026-05-04 13:08 | 36.02443 | 25.44501 | 16590 ft | 359 kts | 162° |
| 2026-05-04 13:09 | 36.00071 | 25.45444 | 16172 ft | 357 kts | 162° |
| 2026-05-04 13:09 | 35.97709 | 25.46386 | 15750 ft | 355 kts | 162° |
| 2026-05-04 13:09 | 35.95377 | 25.47320 | 15352 ft | 353 kts | 162° |
| 2026-05-04 13:09 | 35.93054 | 25.48254 | 14947 ft | 350 kts | 162° |
| 2026-05-04 13:10 | 35.90763 | 25.49173 | 14556 ft | 349 kts | 162° |
| 2026-05-04 13:10 | 35.88447 | 25.50103 | 14156 ft | 346 kts | 163° |
| 2026-05-04 13:10 | 35.86176 | 25.51014 | 13765 ft | 344 kts | 162° |
| 2026-05-04 13:10 | 35.83911 | 25.51920 | 13374 ft | 342 kts | 162° |
| 2026-05-04 13:11 | 35.81651 | 25.52824 | 12965 ft | 341 kts | 162° |
| 2026-05-04 13:11 | 35.79398 | 25.53727 | 12568 ft | 339 kts | 162° |
| 2026-05-04 13:11 | 35.77164 | 25.54620 | 12176 ft | 337 kts | 162° |
| 2026-05-04 13:11 | 35.74935 | 25.55511 | 11782 ft | 336 kts | 162° |
| 2026-05-04 13:12 | 35.72721 | 25.56395 | 11385 ft | 334 kts | 162° |
| 2026-05-04 13:12 | 35.70548 | 25.57305 | 10992 ft | 332 kts | 157° |
| 2026-05-04 13:12 | 35.68512 | 25.58617 | 10613 ft | 330 kts | 145° |
| 2026-05-04 13:12 | 35.66688 | 25.60296 | 10252 ft | 319 kts | 139° |
| 2026-05-04 13:13 | 35.65027 | 25.61973 | 10063 ft | 301 kts | 138° |
| 2026-05-04 13:13 | 35.64022 | 25.62997 | 9841 ft | 295 kts | 138° |
| 2026-05-04 13:13 | 35.62439 | 25.64595 | 9504 ft | 291 kts | 140° |
| 2026-05-04 13:13 | 35.60684 | 25.65788 | 9136 ft | 288 kts | 168° |
| 2026-05-04 13:14 | 35.58776 | 25.65828 | 8818 ft | 281 kts | 198° |
| 2026-05-04 13:14 | 35.57384 | 25.65090 | 8571 ft | 273 kts | 222° |
| 2026-05-04 13:14 | 35.56173 | 25.63399 | 8263 ft | 257 kts | 251° |
| 2026-05-04 13:14 | 35.55578 | 25.61395 | 7986 ft | 253 kts | 258° |
| 2026-05-04 13:15 | 35.54979 | 25.59364 | 7687 ft | 252 kts | 254° |
| 2026-05-04 13:15 | 35.54254 | 25.57405 | 7389 ft | 251 kts | 250° |
| 2026-05-04 13:15 | 35.53439 | 25.55531 | 7093 ft | 249 kts | 247° |
| 2026-05-04 13:15 | 35.52570 | 25.53710 | 6787 ft | 247 kts | 245° |
| 2026-05-04 13:16 | 35.51679 | 25.51930 | 6498 ft | 245 kts | 244° |
| 2026-05-04 13:16 | 35.50767 | 25.50158 | 6200 ft | 243 kts | 244° |
| 2026-05-04 13:16 | 35.49868 | 25.48432 | 5900 ft | 241 kts | 244° |
| 2026-05-04 13:16 | 35.48967 | 25.46707 | 5609 ft | 239 kts | 243° |
| 2026-05-04 13:17 | 35.48071 | 25.45002 | 5324 ft | 237 kts | 243° |
| 2026-05-04 13:17 | 35.47182 | 25.43311 | 5040 ft | 236 kts | 243° |
| 2026-05-04 13:17 | 35.46247 | 25.41653 | 4735 ft | 238 kts | 232° |
| 2026-05-04 13:17 | 35.44856 | 25.40547 | 4422 ft | 246 kts | 200° |
| 2026-05-04 13:18 | 35.43156 | 25.40398 | 4129 ft | 248 kts | 168° |
| 2026-05-04 13:18 | 35.41594 | 25.41193 | 4077 ft | 237 kts | 149° |
| 2026-05-04 13:18 | 35.40206 | 25.42203 | 4049 ft | 227 kts | 148° |
| 2026-05-04 13:18 | 35.38891 | 25.43177 | 4009 ft | 217 kts | 148° |
| 2026-05-04 13:19 | 35.37556 | 25.44038 | 3953 ft | 218 kts | 165° |
| 2026-05-04 13:19 | 35.36120 | 25.43948 | 3915 ft | 199 kts | 209° |
| 2026-05-04 13:19 | 35.35195 | 25.42864 | 3639 ft | 176 kts | 248° |
| 2026-05-04 13:19 | 35.34732 | 25.41561 | 3435 ft | 160 kts | 255° |
| 2026-05-04 13:20 | 35.34338 | 25.40343 | 3230 ft | 149 kts | 255° |
| 2026-05-04 13:20 | 35.33950 | 25.39209 | 3048 ft | 139 kts | 256° |
| 2026-05-04 13:20 | 35.33572 | 25.38138 | 3024 ft | 139 kts | 255° |
| 2026-05-04 13:20 | 35.33185 | 25.37039 | 2967 ft | 137 kts | 260° |
| 2026-05-04 13:21 | 35.32991 | 25.35919 | 2900 ft | 133 kts | 272° |
| 2026-05-04 13:21 | 35.32942 | 25.34790 | 2817 ft | 131 kts | 277° |
| 2026-05-04 13:21 | 35.32953 | 25.33671 | 2670 ft | 131 kts | 279° |
| 2026-05-04 13:21 | 35.32994 | 25.32569 | 2461 ft | 130 kts | 279° |
| 2026-05-04 13:22 | 35.33054 | 25.31470 | 2262 ft | 129 kts | 281° |
| 2026-05-04 13:22 | 35.33127 | 25.30382 | 2061 ft | 129 kts | 282° |
| 2026-05-04 13:22 | 35.33222 | 25.29290 | 1856 ft | 129 kts | 283° |
| 2026-05-04 13:22 | 35.33319 | 25.28194 | 1684 ft | 129 kts | 281° |
| 2026-05-04 13:23 | 35.33368 | 25.27105 | 1525 ft | 129 kts | 277° |
| 2026-05-04 13:23 | 35.33405 | 25.26010 | 1302 ft | 127 kts | 278° |
| 2026-05-04 13:23 | 35.33450 | 25.24952 | 1066 ft | 124 kts | 278° |
| 2026-05-04 13:23 | 35.33543 | 25.23912 | 845 ft | 122 kts | 283° |
| 2026-05-04 13:24 | 35.33651 | 25.22889 | 679 ft | 121 kts | 280° |
| 2026-05-04 13:24 | 35.33725 | 25.21859 | 558 ft | 121 kts | 277° |
| 2026-05-04 13:24 | 35.33774 | 25.20827 | 405 ft | 119 kts | 277° |
| 2026-05-04 13:25 | 35.33915 | 25.18831 | 78 ft | 110 kts | 277° |
| 2026-05-04 13:25 | 35.33973 | 25.18082 | 89 ft | 64 kts | 275° |
| 2026-05-04 13:25 | 35.34008 | 25.17580 | 90 ft | 52 kts | 275° |
| 2026-05-04 13:25 | 35.34024 | 25.17279 | 88 ft | 28 kts | 275° |
| 2026-05-04 13:26 | 35.33983 | 25.17077 | 89 ft | 15 kts | 239° |
| 2026-05-04 13:26 | 35.33938 | 25.17114 | 93 ft | 12 kts | 95° |
| 2026-05-04 13:26 | 35.33931 | 25.17226 | 95 ft | 12 kts | 93° |
| 2026-05-04 13:26 | 35.33924 | 25.17339 | 98 ft | 15 kts | 96° |
| 2026-05-04 13:27 | 35.33912 | 25.17469 | 99 ft | 11 kts | 100° |
| 2026-05-04 13:27 | 35.33862 | 25.17496 | 104 ft | 5 kts | 212° |
| 2026-05-04 13:27 | 35.33857 | 25.17456 | 105 ft | 6 kts | 289° |
| 2026-05-04 13:27 | 35.33878 | 25.17427 | 103 ft | 0 kts | 314° |